createdAt,value
2019-03-25T00:06:43.681Z,47.23
2019-03-25T00:09:22.602Z,49.80
2019-03-25T00:12:15.901Z,44.67
2019-03-25T00:17:59.289Z,47.13
2019-03-25T00:20:17.297Z,56.70
2019-03-25T00:26:39.153Z,50.10
2019-03-25T00:29:26.293Z,44.45
2019-03-25T00:32:19.138Z,41.73
2019-03-25T00:35:07.468Z,45.78
2019-03-25T00:37:51.403Z,45.75
2019-03-25T00:40:37.146Z,47.55
2019-03-25T00:43:29.506Z,47.90
2019-03-25T00:46:12.946Z,51.80
2019-03-25T00:48:51.132Z,49.53
2019-03-25T00:54:20.281Z,54.05
2019-03-25T00:57:08.677Z,55.70
2019-03-25T00:59:49.190Z,55.15
2019-03-25T01:02:27.288Z,57.50
2019-03-25T01:05:11.408Z,53.17
2019-03-25T01:07:50.736Z,56.80
2019-03-25T01:10:27.448Z,54.58
2019-03-25T01:16:00.130Z,56.63
2019-03-25T01:18:49.621Z,54.40
2019-03-25T01:21:20.785Z,59.13
2019-03-25T01:24:04.638Z,51.37
2019-03-25T01:26:47.249Z,49.38
2019-03-25T01:29:25.198Z,47.83
2019-03-25T01:35:00.135Z,47.03
2019-03-25T01:37:36.714Z,43.90
2019-03-25T01:43:38.629Z,39.48
2019-03-25T01:46:18.525Z,38.80
2019-03-25T01:49:01.402Z,43.17
2019-03-25T01:54:32.463Z,37.00
2019-03-25T02:00:23.713Z,39.60
2019-03-25T02:06:39.640Z,39.70
2019-03-25T02:09:39.352Z,36.75
2019-03-25T02:26:54.312Z,33.13
2019-03-25T02:33:04.927Z,31.20
2019-03-25T02:35:32.897Z,31.52
2019-03-25T02:38:37.307Z,27.58
2019-03-25T02:50:59.267Z,24.57
2019-03-25T02:55:46.167Z,27.22
2019-03-25T02:58:36.602Z,30.32
2019-03-25T03:01:37.350Z,29.20
2019-03-25T03:02:31.800Z,23.27
2019-03-25T03:04:20.952Z,24.63
2019-03-25T03:16:17.444Z,22.80
2019-03-25T03:25:02.777Z,19.25
2019-03-25T03:27:41.081Z,14.85
2019-03-25T03:30:40.028Z,21.97
2019-03-25T03:33:31.288Z,17.62
2019-03-25T03:39:10.129Z,21.37
2019-03-25T03:41:55.492Z,18.00
2019-03-25T03:44:43.362Z,18.15
2019-03-25T03:47:39.007Z,17.32
2019-03-25T03:53:55.796Z,15.93
2019-03-25T03:56:51.016Z,13.70
2019-03-25T03:59:44.801Z,14.40
2019-03-25T04:05:24.471Z,17.57
2019-03-25T04:11:47.657Z,12.53
2019-03-25T04:17:21.023Z,18.25
2019-03-25T04:20:32.159Z,16.50
2019-03-25T04:29:34.734Z,13.58
2019-03-25T04:41:40.202Z,12.58
2019-03-25T04:48:00.720Z,18.40
2019-03-25T04:50:31.884Z,18.10
2019-03-25T04:53:16.038Z,19.90
2019-03-25T04:58:52.670Z,16.23
2019-03-25T05:02:01.326Z,15.83
2019-03-25T05:04:28.611Z,16.52
2019-03-25T05:10:14.782Z,15.98
2019-03-25T05:13:31.583Z,18.62
2019-03-25T05:19:40.694Z,17.98
2019-03-25T05:22:20.095Z,19.57
2019-03-25T05:35:32.384Z,25.48
2019-03-25T05:38:12.245Z,16.67
2019-03-25T05:43:46.750Z,28.32
2019-03-25T05:46:18.110Z,23.57
2019-03-25T05:49:05.152Z,22.48
2019-03-25T06:03:47.201Z,16.93
2019-03-25T06:13:10.309Z,19.75
2019-03-25T06:15:50.858Z,15.23
2019-03-25T06:21:25.125Z,18.20
2019-03-25T06:33:30.476Z,18.40
2019-03-25T06:47:34.198Z,16.77
2019-03-25T06:50:07.575Z,15.15
2019-03-25T06:53:44.725Z,12.37
2019-03-25T06:56:13.057Z,13.98
2019-03-25T06:58:41.463Z,18.75
2019-03-25T07:01:09.839Z,15.45
2019-03-25T07:03:38.223Z,17.25
2019-03-25T07:06:06.637Z,14.45
2019-03-25T07:08:35.022Z,16.17
2019-03-25T07:11:03.434Z,14.68
2019-03-25T07:13:31.808Z,17.42
2019-03-25T07:16:00.145Z,13.60
2019-03-25T07:18:28.518Z,11.85
2019-03-25T07:20:57.008Z,14.60
2019-03-25T07:23:25.368Z,16.40
2019-03-25T07:25:53.799Z,19.23
2019-03-25T07:28:22.173Z,14.98
2019-03-25T07:30:50.646Z,15.75
2019-03-25T07:33:19.029Z,16.67
2019-03-25T07:35:47.430Z,17.75
2019-03-25T07:38:15.807Z,19.20
2019-03-25T07:40:44.204Z,22.95
2019-03-25T07:43:12.571Z,16.40
2019-03-25T07:45:40.976Z,15.55
2019-03-25T07:48:09.336Z,17.40
2019-03-25T07:50:37.737Z,13.95
2019-03-25T07:53:06.134Z,17.00
2019-03-25T07:55:34.571Z,16.05
2019-03-25T07:58:02.964Z,16.00
2019-03-25T08:00:31.334Z,21.85
2019-03-25T08:02:59.709Z,13.03
2019-03-25T08:05:28.118Z,14.15
2019-03-25T08:07:56.500Z,14.40
2019-03-25T08:10:30.388Z,18.55
2019-03-25T08:12:58.937Z,13.90
2019-03-25T08:15:27.409Z,13.88
2019-03-25T08:17:55.785Z,16.25
2019-03-25T08:20:24.196Z,12.55
2019-03-25T08:22:52.577Z,16.32
2019-03-25T08:25:20.966Z,20.75
2019-03-25T08:27:59.425Z,17.67
2019-03-25T08:30:21.025Z,17.90
2019-03-25T08:32:49.326Z,14.53
2019-03-25T08:35:17.735Z,19.40
2019-03-25T08:37:46.101Z,15.23
2019-03-25T08:40:14.396Z,15.15
2019-03-25T08:42:42.726Z,15.53
2019-03-25T08:45:11.093Z,13.83
2019-03-25T08:47:39.484Z,15.63
2019-03-25T08:50:09.481Z,19.87
2019-03-25T08:52:37.801Z,16.77
2019-03-25T08:55:06.532Z,15.13
2019-03-25T08:57:34.921Z,12.73
2019-03-25T09:00:04.658Z,15.10
2019-03-25T09:02:33.414Z,18.02
2019-03-25T09:05:01.791Z,11.78
2019-03-25T09:07:30.176Z,16.65
2019-03-25T09:09:58.461Z,8.63
2019-03-25T09:12:38.757Z,12.78
2019-03-25T09:15:40.029Z,12.13
2019-03-25T09:18:10.554Z,12.20
2019-03-25T09:20:38.996Z,13.18
2019-03-25T09:23:07.339Z,10.20
2019-03-25T09:25:41.614Z,10.98
2019-03-25T09:28:09.997Z,7.75
2019-03-25T09:30:56.607Z,8.93
2019-03-25T09:33:24.925Z,13.50
2019-03-25T09:35:53.315Z,11.18
2019-03-25T09:38:21.836Z,11.80
2019-03-25T09:40:50.132Z,17.98
2019-03-25T09:43:18.524Z,12.03
2019-03-25T09:45:46.821Z,11.55
2019-03-25T09:48:15.213Z,9.65
2019-03-25T09:50:43.593Z,10.85
2019-03-25T09:53:11.969Z,11.08
2019-03-25T09:55:40.271Z,13.40
2019-03-25T09:58:08.659Z,16.77
2019-03-25T10:00:37.033Z,11.48
2019-03-25T10:03:05.430Z,10.68
2019-03-25T10:05:34.653Z,17.10
2019-03-25T10:08:03.041Z,15.20
2019-03-25T10:10:31.397Z,13.68
2019-03-25T10:12:59.719Z,17.75
2019-03-25T10:15:28.068Z,14.98
2019-03-25T10:17:56.376Z,15.75
2019-03-25T10:20:24.655Z,10.95
2019-03-25T10:22:53.045Z,11.53
2019-03-25T10:25:21.417Z,11.95
2019-03-25T10:27:49.816Z,12.58
2019-03-25T10:30:18.178Z,11.25
2019-03-25T10:32:46.565Z,12.53
2019-03-25T10:35:14.854Z,10.80
2019-03-25T10:37:43.240Z,14.63
2019-03-25T10:40:11.690Z,11.45
2019-03-25T10:42:40.956Z,12.10
2019-03-25T10:45:09.866Z,10.18
2019-03-25T10:47:38.261Z,11.83
2019-03-25T10:50:07.173Z,10.10
2019-03-25T10:52:35.561Z,13.98
2019-03-25T10:55:05.061Z,10.15
2019-03-25T10:57:33.382Z,8.63
2019-03-25T11:00:01.669Z,9.55
2019-03-25T11:02:30.052Z,13.55
2019-03-25T11:04:58.339Z,10.50
2019-03-25T11:07:29.291Z,9.78
2019-03-25T11:09:56.666Z,11.88
2019-03-25T11:12:24.984Z,10.43
2019-03-25T11:14:53.286Z,11.90
2019-03-25T11:17:21.737Z,16.60
2019-03-25T11:19:50.113Z,14.25
2019-03-25T11:22:18.477Z,15.10
2019-03-25T11:24:46.786Z,9.13
2019-03-25T11:27:15.080Z,13.72
2019-03-25T11:29:43.460Z,15.85
2019-03-25T11:32:11.744Z,8.43
2019-03-25T11:34:40.134Z,12.73
2019-03-25T11:37:09.073Z,11.25
2019-03-25T11:39:37.474Z,11.33
2019-03-25T11:42:05.845Z,11.12
2019-03-25T11:44:34.160Z,10.45
2019-03-25T11:47:03.642Z,13.18
2019-03-25T11:49:32.609Z,15.05
2019-03-25T11:52:00.978Z,11.55
2019-03-25T11:54:29.305Z,12.18
2019-03-25T11:56:57.610Z,13.72
2019-03-25T11:59:26.003Z,10.78
2019-03-25T12:01:54.361Z,10.85
2019-03-25T12:04:22.673Z,6.42
2019-03-25T12:06:50.958Z,6.97
2019-03-25T12:09:19.332Z,7.78
2019-03-25T12:11:47.634Z,7.35
2019-03-25T12:14:16.023Z,9.85
2019-03-25T12:16:44.386Z,7.92
2019-03-25T12:19:12.764Z,11.22
2019-03-25T12:21:41.061Z,12.50
2019-03-25T12:24:09.457Z,14.25
2019-03-25T12:26:37.818Z,11.65
2019-03-25T12:29:06.228Z,8.05
2019-03-25T12:31:34.568Z,12.10
2019-03-25T12:34:02.997Z,7.08
2019-03-25T12:36:31.313Z,10.68
2019-03-25T12:38:59.620Z,8.33
2019-03-25T12:41:27.911Z,8.38
2019-03-25T12:43:56.285Z,9.88
2019-03-25T12:46:24.599Z,10.18
2019-03-25T12:48:52.975Z,5.28
2019-03-25T12:51:21.254Z,9.65
2019-03-25T12:53:49.570Z,5.90
2019-03-25T12:56:17.940Z,10.08
2019-03-25T12:58:46.248Z,7.62
2019-03-25T13:01:14.538Z,4.65
2019-03-25T13:03:42.917Z,8.30
2019-03-25T13:06:11.217Z,3.05
2019-03-25T13:08:39.609Z,7.58
2019-03-25T13:11:07.892Z,4.55
2019-03-25T13:13:36.205Z,3.58
2019-03-25T13:16:04.583Z,4.87
2019-03-25T13:18:32.969Z,7.40
2019-03-25T13:21:01.293Z,7.22
2019-03-25T13:23:29.585Z,7.08
2019-03-25T13:25:57.905Z,7.97
2019-03-25T13:28:26.264Z,6.22
2019-03-25T13:30:54.645Z,5.60
2019-03-25T13:33:22.933Z,4.10
2019-03-25T13:35:51.241Z,5.28
2019-03-25T13:38:19.620Z,5.20
2019-03-25T13:40:48.022Z,8.00
2019-03-25T13:43:16.412Z,5.90
2019-03-25T13:45:44.789Z,5.30
2019-03-25T13:48:13.076Z,5.17
2019-03-25T13:50:41.396Z,6.12
2019-03-25T13:53:09.680Z,4.95
2019-03-25T13:55:37.982Z,4.08
2019-03-25T13:58:06.924Z,4.65
2019-03-25T14:00:36.726Z,6.42
2019-03-25T14:03:05.176Z,6.95
2019-03-25T14:05:33.474Z,10.23
2019-03-25T14:08:01.864Z,6.65
2019-03-25T14:10:30.228Z,9.05
2019-03-25T14:12:58.618Z,5.12
2019-03-25T14:15:26.982Z,7.97
2019-03-25T14:17:55.369Z,5.67
2019-03-25T14:20:23.729Z,6.67
2019-03-25T14:22:52.108Z,4.87
2019-03-25T14:25:20.656Z,6.70
2019-03-25T14:27:49.037Z,5.10
2019-03-25T14:30:17.325Z,4.58
2019-03-25T14:32:45.636Z,7.62
2019-03-25T14:35:14.001Z,6.08
2019-03-25T14:37:42.385Z,5.83
2019-03-25T14:40:10.754Z,5.33
2019-03-25T14:42:39.143Z,7.67
2019-03-25T14:45:07.581Z,7.70
2019-03-25T14:47:35.964Z,10.88
2019-03-25T14:50:06.257Z,8.88
2019-03-25T14:52:34.654Z,8.43
2019-03-25T14:55:02.935Z,7.50
2019-03-25T14:57:31.312Z,10.55
2019-03-25T15:00:00.328Z,7.90
2019-03-25T15:02:28.768Z,4.87
2019-03-25T15:04:57.124Z,5.75
2019-03-25T15:07:25.433Z,5.62
2019-03-25T15:09:53.793Z,2.72
2019-03-25T15:12:22.128Z,3.22
2019-03-25T15:14:50.494Z,5.35
2019-03-25T15:17:19.461Z,6.33
2019-03-25T15:19:47.820Z,2.95
2019-03-25T15:22:16.200Z,7.50
2019-03-25T15:24:44.485Z,9.55
2019-03-25T15:27:12.864Z,8.23
2019-03-25T15:29:41.155Z,9.43
2019-03-25T15:32:09.545Z,4.70
2019-03-25T15:34:37.905Z,2.30
2019-03-25T15:37:06.226Z,4.03
2019-03-25T15:39:35.094Z,5.72
2019-03-25T15:42:03.498Z,5.17
2019-03-25T15:44:31.886Z,7.22
2019-03-25T15:47:00.261Z,2.87
2019-03-25T15:49:28.661Z,6.87
2019-03-25T15:51:57.013Z,6.92
2019-03-25T15:54:25.404Z,4.75
2019-03-25T15:56:53.767Z,9.03
2019-03-25T15:59:22.150Z,3.67
2019-03-25T16:01:51.087Z,3.52
2019-03-25T16:04:19.489Z,4.00
2019-03-25T16:06:47.854Z,5.22
2019-03-25T16:09:16.248Z,2.12
2019-03-25T16:11:44.601Z,3.30
2019-03-25T16:14:12.930Z,3.05
2019-03-25T16:16:41.319Z,3.90
2019-03-25T16:19:09.715Z,3.92
2019-03-25T16:21:38.064Z,2.83
2019-03-25T16:24:06.441Z,5.95
2019-03-25T16:26:34.814Z,4.90
2019-03-25T16:29:03.201Z,8.75
2019-03-25T16:31:31.497Z,5.12
2019-03-25T16:33:59.875Z,3.30
2019-03-25T16:36:28.171Z,7.72
2019-03-25T16:38:56.556Z,7.60
2019-03-25T16:41:24.918Z,6.45
2019-03-25T16:43:53.302Z,5.05
2019-03-25T16:46:21.667Z,5.95
2019-03-25T16:48:50.063Z,7.97
2019-03-25T16:51:18.421Z,3.22
2019-03-25T16:53:46.807Z,4.35
2019-03-25T16:56:15.168Z,8.88
2019-03-25T16:58:43.558Z,4.42
2019-03-25T17:01:11.912Z,4.42
2019-03-25T17:03:40.217Z,2.22
2019-03-25T17:06:08.513Z,4.05
2019-03-25T17:08:36.909Z,4.20
2019-03-25T17:11:05.301Z,4.75
2019-03-25T17:13:33.662Z,4.30
2019-03-25T17:16:02.014Z,3.75
2019-03-25T17:18:30.330Z,4.30
2019-03-25T17:20:58.693Z,2.40
2019-03-25T17:23:27.003Z,3.55
2019-03-25T17:25:55.370Z,4.65
2019-03-25T17:28:23.734Z,5.75
2019-03-25T17:30:52.156Z,4.60
2019-03-25T17:33:20.477Z,3.22
2019-03-25T17:35:48.846Z,4.30
2019-03-25T17:38:17.228Z,4.42
2019-03-25T17:40:45.616Z,6.40
2019-03-25T17:43:13.984Z,4.50
2019-03-25T17:45:42.356Z,5.05
2019-03-25T17:48:10.776Z,3.98
2019-03-25T17:50:39.129Z,3.08
2019-03-25T17:53:07.418Z,4.92
2019-03-25T17:55:35.832Z,3.75
2019-03-25T17:58:04.194Z,5.22
2019-03-25T18:00:50.693Z,5.00
2019-03-25T18:03:19.073Z,6.90
2019-03-25T18:05:47.457Z,4.67
2019-03-25T18:08:15.815Z,5.92
2019-03-25T18:10:44.202Z,8.63
2019-03-25T18:13:21.897Z,8.83
2019-03-25T18:15:42.597Z,6.22
2019-03-25T18:18:10.971Z,6.03
2019-03-25T18:20:39.357Z,5.58
2019-03-25T18:23:07.658Z,2.98
2019-03-25T18:25:36.216Z,4.45
2019-03-25T18:28:04.591Z,3.37
2019-03-25T18:30:35.916Z,6.75
2019-03-25T18:33:04.214Z,7.70
2019-03-25T18:35:32.605Z,9.25
2019-03-25T18:38:00.972Z,9.80
2019-03-25T18:40:29.397Z,17.05
2019-03-25T18:42:57.752Z,10.50
2019-03-25T18:45:26.157Z,15.68
2019-03-25T18:47:54.524Z,8.15
2019-03-25T18:50:22.918Z,14.53
2019-03-25T18:52:51.285Z,10.05
2019-03-25T18:55:19.676Z,13.28
2019-03-25T18:57:48.100Z,9.83
2019-03-25T19:00:30.585Z,14.43
2019-03-25T19:02:59.100Z,10.80
2019-03-25T19:05:27.499Z,12.78
2019-03-25T19:07:55.862Z,15.13
2019-03-25T19:10:27.525Z,9.08
2019-03-25T19:12:55.893Z,9.68
2019-03-25T19:15:24.226Z,13.80
2019-03-25T19:17:52.589Z,15.60
2019-03-25T19:20:20.996Z,12.35
2019-03-25T19:22:49.370Z,12.60
2019-03-25T19:25:17.817Z,8.95
2019-03-25T19:27:46.215Z,8.73
2019-03-25T19:30:14.598Z,7.58
2019-03-25T19:32:42.970Z,12.18
2019-03-25T19:35:11.365Z,5.20
2019-03-25T19:37:39.733Z,10.70
2019-03-25T19:40:09.747Z,10.53
2019-03-25T19:42:38.723Z,13.65
2019-03-25T19:45:08.472Z,21.25
2019-03-25T19:47:36.902Z,14.05
2019-03-25T19:50:06.295Z,10.53
2019-03-25T19:52:34.734Z,8.83
2019-03-25T19:55:03.141Z,7.08
2019-03-25T19:57:31.552Z,9.10
2019-03-25T19:59:59.951Z,6.47
2019-03-25T20:02:28.354Z,6.12
2019-03-25T20:04:56.728Z,6.75
2019-03-25T20:07:25.220Z,6.47
2019-03-25T20:09:53.571Z,8.98
2019-03-25T20:12:21.913Z,8.78
2019-03-25T20:14:50.339Z,7.40
2019-03-25T20:17:18.704Z,10.08
2019-03-25T20:19:47.277Z,8.00
2019-03-25T20:22:15.712Z,8.80
2019-03-25T20:24:44.121Z,5.90
2019-03-25T20:27:12.483Z,8.55
2019-03-25T20:29:40.841Z,9.33
2019-03-25T20:32:09.246Z,8.48
2019-03-25T20:34:37.886Z,8.93
2019-03-25T20:37:06.464Z,8.63
2019-03-25T20:39:34.853Z,10.50
2019-03-25T20:42:03.238Z,5.55
2019-03-25T20:44:31.608Z,7.33
2019-03-25T20:46:59.998Z,9.45
2019-03-25T20:49:28.394Z,7.70
2019-03-25T20:51:56.789Z,9.38
2019-03-25T20:54:25.203Z,9.95
2019-03-25T20:56:53.581Z,12.43
2019-03-25T20:59:21.949Z,12.40
2019-03-25T21:01:50.338Z,9.18
2019-03-25T21:04:18.707Z,10.50
2019-03-25T21:06:47.097Z,11.95
2019-03-25T21:09:15.442Z,13.48
2019-03-25T21:11:43.777Z,13.50
2019-03-25T21:14:12.206Z,21.90
2019-03-25T21:16:40.530Z,14.93
2019-03-25T21:19:08.973Z,18.95
2019-03-25T21:21:37.333Z,23.12
2019-03-25T21:24:05.667Z,21.23
2019-03-25T21:26:34.067Z,21.87
2019-03-25T21:29:02.434Z,25.40
2019-03-25T21:31:30.869Z,21.42
2019-03-25T21:33:59.202Z,23.87
2019-03-25T21:36:27.606Z,27.98
2019-03-25T21:38:56.005Z,26.40
2019-03-25T21:41:24.397Z,24.47
2019-03-25T21:43:52.748Z,27.05
2019-03-25T21:46:21.124Z,26.70
2019-03-25T21:48:49.633Z,26.15
2019-03-25T21:51:17.975Z,28.85
2019-03-25T21:53:46.377Z,23.65
2019-03-25T21:56:14.961Z,29.57
2019-03-25T21:58:43.484Z,28.60
2019-03-25T22:01:11.889Z,28.85
2019-03-25T22:03:40.861Z,28.60
2019-03-25T22:06:09.229Z,25.68
2019-03-25T22:08:37.578Z,24.23
2019-03-25T22:11:05.953Z,22.42
2019-03-25T22:13:34.307Z,25.68
2019-03-25T22:16:02.678Z,22.75
2019-03-25T22:18:31.115Z,28.40
2019-03-25T22:20:59.478Z,22.98
2019-03-25T22:23:27.949Z,22.73
2019-03-25T22:25:56.263Z,20.15
2019-03-25T22:28:24.676Z,20.27
2019-03-25T22:30:53.055Z,21.87
2019-03-25T22:33:26.136Z,17.15
2019-03-25T22:35:51.716Z,18.50
2019-03-25T22:38:20.131Z,17.90
2019-03-25T22:40:48.506Z,18.52
2019-03-25T22:43:16.832Z,19.40
2019-03-25T22:45:45.206Z,18.32
2019-03-25T22:48:13.596Z,15.30
2019-03-25T22:50:41.893Z,17.10
2019-03-25T22:53:10.283Z,18.60
2019-03-25T22:55:38.674Z,18.92
2019-03-25T22:58:07.061Z,16.90
2019-03-25T23:00:39.969Z,22.75
2019-03-25T23:03:08.371Z,18.60
2019-03-25T23:05:37.292Z,17.65
2019-03-25T23:08:05.674Z,18.75
2019-03-25T23:10:34.074Z,17.05
2019-03-25T23:13:02.453Z,18.50
2019-03-25T23:15:30.851Z,20.35
2019-03-25T23:17:59.799Z,16.42
2019-03-25T23:20:28.192Z,12.45
2019-03-25T23:22:56.558Z,15.35
2019-03-25T23:25:24.945Z,14.23
2019-03-25T23:27:53.332Z,12.85
2019-03-25T23:30:21.724Z,13.05
2019-03-25T23:32:50.017Z,13.32
2019-03-25T23:35:18.443Z,13.65
2019-03-25T23:37:46.809Z,15.88
2019-03-25T23:40:15.414Z,14.10
2019-03-25T23:42:43.764Z,14.40
2019-03-25T23:45:12.156Z,14.05
2019-03-25T23:47:40.461Z,14.10
2019-03-25T23:50:08.846Z,13.70
2019-03-25T23:52:37.213Z,14.50
2019-03-25T23:55:06.568Z,15.05
2019-03-25T23:57:34.935Z,17.27
